sensor_id;sensor_type;location;lat;lon;timestamp;P1;durP1;ratioP1;P2;durP2;ratioP2
57297;SDS011;43147;50.972;18.210;2023-04-25T00:01:20;27.60;;;13.70;;
57297;SDS011;43147;50.972;18.210;2023-04-25T00:03:47;15.70;;;11.50;;
57297;SDS011;43147;50.972;18.210;2023-04-25T00:06:13;17.30;;;11.00;;
57297;SDS011;43147;50.972;18.210;2023-04-25T00:08:39;15.80;;;10.50;;
57297;SDS011;43147;50.972;18.210;2023-04-25T00:11:05;15.70;;;8.30;;
57297;SDS011;43147;50.972;18.210;2023-04-25T00:13:30;20.50;;;12.10;;
57297;SDS011;43147;50.972;18.210;2023-04-25T00:15:56;18.30;;;10.80;;
57297;SDS011;43147;50.972;18.210;2023-04-25T00:18:23;16.00;;;9.30;;
57297;SDS011;43147;50.972;18.210;2023-04-25T00:20:49;14.10;;;9.00;;
57297;SDS011;43147;50.972;18.210;2023-04-25T00:23:15;13.60;;;8.80;;
57297;SDS011;43147;50.972;18.210;2023-04-25T00:25:51;17.70;;;9.50;;
57297;SDS011;43147;50.972;18.210;2023-04-25T00:28:17;17.60;;;9.10;;
57297;SDS011;43147;50.972;18.210;2023-04-25T00:30:43;12.70;;;8.20;;
57297;SDS011;43147;50.972;18.210;2023-04-25T00:33:08;9.20;;;7.50;;
57297;SDS011;43147;50.972;18.210;2023-04-25T00:35:35;7.40;;;6.00;;
57297;SDS011;43147;50.972;18.210;2023-04-25T00:38:00;9.00;;;5.20;;
57297;SDS011;43147;50.972;18.210;2023-04-25T00:40:26;7.60;;;4.70;;
57297;SDS011;43147;50.972;18.210;2023-04-25T00:42:53;6.30;;;4.30;;
57297;SDS011;43147;50.972;18.210;2023-04-25T00:45:19;9.00;;;4.60;;
57297;SDS011;43147;50.972;18.210;2023-04-25T00:47:45;8.10;;;5.40;;
57297;SDS011;43147;50.972;18.210;2023-04-25T00:50:11;9.10;;;5.50;;
57297;SDS011;43147;50.972;18.210;2023-04-25T00:52:37;7.60;;;5.50;;
57297;SDS011;43147;50.972;18.210;2023-04-25T00:55:08;7.70;;;6.20;;
57297;SDS011;43147;50.972;18.210;2023-04-25T00:57:35;7.80;;;5.70;;
57297;SDS011;43147;50.972;18.210;2023-04-25T01:00:02;6.90;;;4.10;;
57297;SDS011;43147;50.972;18.210;2023-04-25T01:02:30;3.40;;;3.10;;
57297;SDS011;43147;50.972;18.210;2023-04-25T01:04:57;4.50;;;2.50;;
57297;SDS011;43147;50.972;18.210;2023-04-25T01:07:23;3.90;;;1.90;;
57297;SDS011;43147;50.972;18.210;2023-04-25T01:09:51;3.70;;;2.10;;
57297;SDS011;43147;50.972;18.210;2023-04-25T01:12:17;4.50;;;2.20;;
57297;SDS011;43147;50.972;18.210;2023-04-25T01:14:42;2.40;;;1.90;;
57297;SDS011;43147;50.972;18.210;2023-04-25T01:17:08;2.70;;;1.90;;
57297;SDS011;43147;50.972;18.210;2023-04-25T01:19:34;2.60;;;2.10;;
57297;SDS011;43147;50.972;18.210;2023-04-25T01:22:00;3.80;;;1.70;;
57297;SDS011;43147;50.972;18.210;2023-04-25T01:24:28;4.40;;;2.30;;
57297;SDS011;43147;50.972;18.210;2023-04-25T01:26:54;2.70;;;1.90;;
57297;SDS011;43147;50.972;18.210;2023-04-25T01:29:21;3.00;;;1.60;;
57297;SDS011;43147;50.972;18.210;2023-04-25T01:31:48;4.30;;;2.20;;
57297;SDS011;43147;50.972;18.210;2023-04-25T01:34:14;3.20;;;2.60;;
57297;SDS011;43147;50.972;18.210;2023-04-25T01:36:40;3.20;;;2.70;;
57297;SDS011;43147;50.972;18.210;2023-04-25T01:39:06;3.30;;;2.60;;
57297;SDS011;43147;50.972;18.210;2023-04-25T01:41:32;8.80;;;3.50;;
57297;SDS011;43147;50.972;18.210;2023-04-25T01:43:57;3.70;;;3.00;;
57297;SDS011;43147;50.972;18.210;2023-04-25T01:46:23;7.70;;;3.70;;
57297;SDS011;43147;50.972;18.210;2023-04-25T01:48:48;2.90;;;2.60;;
57297;SDS011;43147;50.972;18.210;2023-04-25T01:51:14;8.90;;;4.70;;
57297;SDS011;43147;50.972;18.210;2023-04-25T01:53:40;4.80;;;4.00;;
57297;SDS011;43147;50.972;18.210;2023-04-25T01:56:06;7.60;;;4.20;;
57297;SDS011;43147;50.972;18.210;2023-04-25T01:58:32;6.20;;;4.70;;
57297;SDS011;43147;50.972;18.210;2023-04-25T02:00:57;5.90;;;4.80;;
57297;SDS011;43147;50.972;18.210;2023-04-25T02:03:23;8.50;;;4.10;;
57297;SDS011;43147;50.972;18.210;2023-04-25T02:05:48;7.40;;;5.80;;
57297;SDS011;43147;50.972;18.210;2023-04-25T02:08:15;4.80;;;4.30;;
57297;SDS011;43147;50.972;18.210;2023-04-25T02:10:42;8.50;;;6.00;;
57297;SDS011;43147;50.972;18.210;2023-04-25T02:13:08;6.90;;;6.20;;
57297;SDS011;43147;50.972;18.210;2023-04-25T02:15:33;9.10;;;4.80;;
57297;SDS011;43147;50.972;18.210;2023-04-25T02:17:59;7.70;;;3.70;;
57297;SDS011;43147;50.972;18.210;2023-04-25T02:20:25;5.90;;;2.80;;
57297;SDS011;43147;50.972;18.210;2023-04-25T02:22:51;7.00;;;4.50;;
57297;SDS011;43147;50.972;18.210;2023-04-25T02:25:18;6.00;;;3.60;;
57297;SDS011;43147;50.972;18.210;2023-04-25T02:27:45;3.60;;;3.10;;
57297;SDS011;43147;50.972;18.210;2023-04-25T02:30:12;4.60;;;3.80;;
57297;SDS011;43147;50.972;18.210;2023-04-25T02:32:38;4.20;;;3.60;;
57297;SDS011;43147;50.972;18.210;2023-04-25T02:35:05;5.20;;;3.80;;
57297;SDS011;43147;50.972;18.210;2023-04-25T02:37:31;5.70;;;4.10;;
57297;SDS011;43147;50.972;18.210;2023-04-25T02:40:02;6.20;;;5.30;;
57297;SDS011;43147;50.972;18.210;2023-04-25T02:42:31;7.30;;;5.40;;
57297;SDS011;43147;50.972;18.210;2023-04-25T02:44:57;6.20;;;5.30;;
57297;SDS011;43147;50.972;18.210;2023-04-25T02:47:23;10.10;;;5.50;;
57297;SDS011;43147;50.972;18.210;2023-04-25T02:49:49;12.00;;;7.30;;
57297;SDS011;43147;50.972;18.210;2023-04-25T02:52:17;8.30;;;7.20;;
57297;SDS011;43147;50.972;18.210;2023-04-25T02:54:42;9.60;;;6.40;;
57297;SDS011;43147;50.972;18.210;2023-04-25T02:57:08;7.60;;;5.10;;
57297;SDS011;43147;50.972;18.210;2023-04-25T02:59:33;3.40;;;2.80;;
57297;SDS011;43147;50.972;18.210;2023-04-25T03:01:59;3.30;;;2.80;;
57297;SDS011;43147;50.972;18.210;2023-04-25T03:04:25;4.30;;;2.60;;
57297;SDS011;43147;50.972;18.210;2023-04-25T03:06:51;3.20;;;2.30;;
57297;SDS011;43147;50.972;18.210;2023-04-25T03:09:17;6.40;;;2.70;;
57297;SDS011;43147;50.972;18.210;2023-04-25T03:11:43;2.80;;;2.10;;
57297;SDS011;43147;50.972;18.210;2023-04-25T03:14:09;3.40;;;2.40;;
57297;SDS011;43147;50.972;18.210;2023-04-25T03:16:35;8.30;;;2.50;;
57297;SDS011;43147;50.972;18.210;2023-04-25T03:19:01;2.90;;;2.60;;
57297;SDS011;43147;50.972;18.210;2023-04-25T03:21:27;3.60;;;2.70;;
57297;SDS011;43147;50.972;18.210;2023-04-25T03:23:53;3.50;;;3.20;;
57297;SDS011;43147;50.972;18.210;2023-04-25T03:26:19;4.60;;;3.20;;
57297;SDS011;43147;50.972;18.210;2023-04-25T03:28:44;5.10;;;3.20;;
57297;SDS011;43147;50.972;18.210;2023-04-25T03:31:10;3.80;;;3.10;;
57297;SDS011;43147;50.972;18.210;2023-04-25T03:33:35;13.70;;;5.30;;
57297;SDS011;43147;50.972;18.210;2023-04-25T03:36:01;27.00;;;9.10;;
57297;SDS011;43147;50.972;18.210;2023-04-25T03:38:27;23.40;;;8.20;;
57297;SDS011;43147;50.972;18.210;2023-04-25T03:40:53;10.10;;;5.30;;
57297;SDS011;43147;50.972;18.210;2023-04-25T03:43:19;6.00;;;3.60;;
57297;SDS011;43147;50.972;18.210;2023-04-25T03:45:45;6.70;;;3.10;;
57297;SDS011;43147;50.972;18.210;2023-04-25T03:48:11;4.60;;;3.90;;
57297;SDS011;43147;50.972;18.210;2023-04-25T03:50:37;5.60;;;3.40;;
57297;SDS011;43147;50.972;18.210;2023-04-25T03:53:02;5.10;;;4.00;;
57297;SDS011;43147;50.972;18.210;2023-04-25T03:55:28;5.90;;;4.00;;
57297;SDS011;43147;50.972;18.210;2023-04-25T03:57:53;3.40;;;3.10;;
57297;SDS011;43147;50.972;18.210;2023-04-25T04:00:19;3.60;;;3.00;;
57297;SDS011;43147;50.972;18.210;2023-04-25T04:02:45;4.10;;;2.40;;
57297;SDS011;43147;50.972;18.210;2023-04-25T04:05:10;2.00;;;1.80;;
57297;SDS011;43147;50.972;18.210;2023-04-25T04:07:38;2.00;;;1.80;;
57297;SDS011;43147;50.972;18.210;2023-04-25T04:10:07;3.70;;;2.10;;
57297;SDS011;43147;50.972;18.210;2023-04-25T04:12:37;2.60;;;2.20;;
57297;SDS011;43147;50.972;18.210;2023-04-25T04:15:06;3.70;;;2.00;;
57297;SDS011;43147;50.972;18.210;2023-04-25T04:17:32;8.30;;;2.70;;
57297;SDS011;43147;50.972;18.210;2023-04-25T04:19:59;5.50;;;3.50;;
57297;SDS011;43147;50.972;18.210;2023-04-25T04:22:25;8.50;;;3.70;;
57297;SDS011;43147;50.972;18.210;2023-04-25T04:24:51;16.20;;;7.10;;
57297;SDS011;43147;50.972;18.210;2023-04-25T04:27:17;23.10;;;6.80;;
57297;SDS011;43147;50.972;18.210;2023-04-25T04:29:43;16.80;;;7.50;;
57297;SDS011;43147;50.972;18.210;2023-04-25T04:32:09;16.30;;;6.70;;
57297;SDS011;43147;50.972;18.210;2023-04-25T04:34:34;15.70;;;7.80;;
57297;SDS011;43147;50.972;18.210;2023-04-25T04:37:00;12.00;;;6.10;;
57297;SDS011;43147;50.972;18.210;2023-04-25T04:39:26;13.90;;;6.20;;
57297;SDS011;43147;50.972;18.210;2023-04-25T04:41:52;11.90;;;5.90;;
57297;SDS011;43147;50.972;18.210;2023-04-25T04:44:18;10.60;;;4.80;;
57297;SDS011;43147;50.972;18.210;2023-04-25T04:46:44;5.30;;;4.00;;
57297;SDS011;43147;50.972;18.210;2023-04-25T04:49:10;4.00;;;3.30;;
57297;SDS011;43147;50.972;18.210;2023-04-25T04:51:36;4.20;;;3.20;;
57297;SDS011;43147;50.972;18.210;2023-04-25T04:54:02;8.80;;;3.80;;
57297;SDS011;43147;50.972;18.210;2023-04-25T04:56:29;6.10;;;3.30;;
57297;SDS011;43147;50.972;18.210;2023-04-25T04:58:56;8.50;;;3.70;;
57297;SDS011;43147;50.972;18.210;2023-04-25T05:01:22;9.20;;;3.50;;
57297;SDS011;43147;50.972;18.210;2023-04-25T05:03:48;7.60;;;3.10;;
57297;SDS011;43147;50.972;18.210;2023-04-25T05:06:14;6.70;;;3.30;;
57297;SDS011;43147;50.972;18.210;2023-04-25T05:08:39;6.60;;;3.10;;
57297;SDS011;43147;50.972;18.210;2023-04-25T05:11:05;4.50;;;3.00;;
57297;SDS011;43147;50.972;18.210;2023-04-25T05:13:31;6.00;;;3.20;;
57297;SDS011;43147;50.972;18.210;2023-04-25T05:15:56;7.60;;;4.40;;
57297;SDS011;43147;50.972;18.210;2023-04-25T05:18:22;7.50;;;4.20;;
57297;SDS011;43147;50.972;18.210;2023-04-25T05:20:47;14.00;;;6.40;;
57297;SDS011;43147;50.972;18.210;2023-04-25T05:23:13;9.20;;;5.40;;
57297;SDS011;43147;50.972;18.210;2023-04-25T05:25:38;13.10;;;6.00;;
57297;SDS011;43147;50.972;18.210;2023-04-25T05:28:04;9.00;;;6.30;;
57297;SDS011;43147;50.972;18.210;2023-04-25T05:30:31;11.30;;;5.20;;
57297;SDS011;43147;50.972;18.210;2023-04-25T05:32:56;6.70;;;5.40;;
57297;SDS011;43147;50.972;18.210;2023-04-25T05:35:22;9.50;;;5.90;;
57297;SDS011;43147;50.972;18.210;2023-04-25T05:37:47;9.40;;;6.10;;
57297;SDS011;43147;50.972;18.210;2023-04-25T05:40:13;8.90;;;6.00;;
57297;SDS011;43147;50.972;18.210;2023-04-25T05:42:38;9.50;;;6.00;;
57297;SDS011;43147;50.972;18.210;2023-04-25T05:45:04;11.50;;;5.80;;
57297;SDS011;43147;50.972;18.210;2023-04-25T05:47:30;12.20;;;6.10;;
57297;SDS011;43147;50.972;18.210;2023-04-25T05:49:56;11.40;;;5.70;;
57297;SDS011;43147;50.972;18.210;2023-04-25T05:52:21;9.80;;;6.50;;
57297;SDS011;43147;50.972;18.210;2023-04-25T05:54:48;10.80;;;7.00;;
57297;SDS011;43147;50.972;18.210;2023-04-25T05:57:20;8.40;;;6.20;;
57297;SDS011;43147;50.972;18.210;2023-04-25T05:59:49;12.30;;;6.50;;
57297;SDS011;43147;50.972;18.210;2023-04-25T06:02:14;9.10;;;6.60;;
57297;SDS011;43147;50.972;18.210;2023-04-25T06:04:40;9.20;;;7.20;;
57297;SDS011;43147;50.972;18.210;2023-04-25T06:07:05;10.20;;;8.00;;
57297;SDS011;43147;50.972;18.210;2023-04-25T06:09:31;12.20;;;7.10;;
57297;SDS011;43147;50.972;18.210;2023-04-25T06:11:57;12.20;;;7.90;;
57297;SDS011;43147;50.972;18.210;2023-04-25T06:14:22;8.20;;;6.10;;
57297;SDS011;43147;50.972;18.210;2023-04-25T06:16:48;7.60;;;6.70;;
57297;SDS011;43147;50.972;18.210;2023-04-25T06:19:14;10.50;;;7.50;;
57297;SDS011;43147;50.972;18.210;2023-04-25T06:21:39;8.00;;;6.60;;
57297;SDS011;43147;50.972;18.210;2023-04-25T06:24:05;9.80;;;7.00;;
57297;SDS011;43147;50.972;18.210;2023-04-25T06:26:31;11.50;;;7.70;;
57297;SDS011;43147;50.972;18.210;2023-04-25T06:28:56;10.20;;;7.20;;
57297;SDS011;43147;50.972;18.210;2023-04-25T06:31:22;7.70;;;6.50;;
57297;SDS011;43147;50.972;18.210;2023-04-25T06:33:47;10.10;;;6.50;;
57297;SDS011;43147;50.972;18.210;2023-04-25T06:36:13;12.00;;;6.50;;
57297;SDS011;43147;50.972;18.210;2023-04-25T06:38:39;9.30;;;6.30;;
57297;SDS011;43147;50.972;18.210;2023-04-25T06:41:05;5.80;;;5.10;;
57297;SDS011;43147;50.972;18.210;2023-04-25T06:43:30;10.90;;;5.70;;
57297;SDS011;43147;50.972;18.210;2023-04-25T06:45:59;6.60;;;5.40;;
57297;SDS011;43147;50.972;18.210;2023-04-25T06:48:26;5.90;;;5.30;;
57297;SDS011;43147;50.972;18.210;2023-04-25T06:50:52;13.50;;;6.00;;
57297;SDS011;43147;50.972;18.210;2023-04-25T06:53:18;11.90;;;6.00;;
57297;SDS011;43147;50.972;18.210;2023-04-25T06:55:43;5.90;;;4.90;;
57297;SDS011;43147;50.972;18.210;2023-04-25T06:58:09;7.60;;;4.90;;
57297;SDS011;43147;50.972;18.210;2023-04-25T07:00:35;5.40;;;4.70;;
57297;SDS011;43147;50.972;18.210;2023-04-25T07:03:01;6.00;;;4.40;;
57297;SDS011;43147;50.972;18.210;2023-04-25T07:05:27;7.90;;;4.60;;
57297;SDS011;43147;50.972;18.210;2023-04-25T07:07:52;7.10;;;4.60;;
57297;SDS011;43147;50.972;18.210;2023-04-25T07:10:18;7.00;;;4.50;;
57297;SDS011;43147;50.972;18.210;2023-04-25T07:12:44;8.20;;;4.80;;
57297;SDS011;43147;50.972;18.210;2023-04-25T07:15:10;8.00;;;5.00;;
57297;SDS011;43147;50.972;18.210;2023-04-25T07:17:37;6.70;;;5.60;;
57297;SDS011;43147;50.972;18.210;2023-04-25T07:20:03;5.60;;;4.90;;
57297;SDS011;43147;50.972;18.210;2023-04-25T07:22:31;9.90;;;6.60;;
57297;SDS011;43147;50.972;18.210;2023-04-25T07:24:57;6.70;;;5.10;;
57297;SDS011;43147;50.972;18.210;2023-04-25T07:27:24;7.80;;;5.70;;
57297;SDS011;43147;50.972;18.210;2023-04-25T07:29:49;11.70;;;6.40;;
57297;SDS011;43147;50.972;18.210;2023-04-25T07:32:15;7.10;;;4.80;;
57297;SDS011;43147;50.972;18.210;2023-04-25T07:34:41;6.10;;;5.50;;
57297;SDS011;43147;50.972;18.210;2023-04-25T07:37:06;7.50;;;5.60;;
57297;SDS011;43147;50.972;18.210;2023-04-25T07:39:32;7.60;;;6.20;;
57297;SDS011;43147;50.972;18.210;2023-04-25T07:41:57;9.60;;;5.90;;
57297;SDS011;43147;50.972;18.210;2023-04-25T07:44:29;7.30;;;5.80;;
57297;SDS011;43147;50.972;18.210;2023-04-25T07:47:04;6.40;;;5.70;;
57297;SDS011;43147;50.972;18.210;2023-04-25T07:49:35;7.60;;;5.70;;
57297;SDS011;43147;50.972;18.210;2023-04-25T07:52:02;8.80;;;6.40;;
57297;SDS011;43147;50.972;18.210;2023-04-25T07:54:29;6.80;;;5.40;;
57297;SDS011;43147;50.972;18.210;2023-04-25T07:56:55;9.00;;;5.80;;
57297;SDS011;43147;50.972;18.210;2023-04-25T07:59:21;10.20;;;5.50;;
57297;SDS011;43147;50.972;18.210;2023-04-25T08:01:47;7.00;;;5.00;;
57297;SDS011;43147;50.972;18.210;2023-04-25T08:04:13;7.00;;;5.10;;
57297;SDS011;43147;50.972;18.210;2023-04-25T08:06:39;8.90;;;4.80;;
57297;SDS011;43147;50.972;18.210;2023-04-25T08:09:06;9.30;;;5.10;;
57297;SDS011;43147;50.972;18.210;2023-04-25T08:11:32;10.30;;;5.00;;
57297;SDS011;43147;50.972;18.210;2023-04-25T08:13:57;6.30;;;4.70;;
57297;SDS011;43147;50.972;18.210;2023-04-25T08:16:23;8.10;;;5.20;;
57297;SDS011;43147;50.972;18.210;2023-04-25T08:18:49;10.50;;;5.80;;
57297;SDS011;43147;50.972;18.210;2023-04-25T08:21:15;7.80;;;5.40;;
57297;SDS011;43147;50.972;18.210;2023-04-25T08:23:41;7.00;;;5.60;;
57297;SDS011;43147;50.972;18.210;2023-04-25T08:26:07;11.30;;;6.00;;
57297;SDS011;43147;50.972;18.210;2023-04-25T08:28:33;7.90;;;5.60;;
57297;SDS011;43147;50.972;18.210;2023-04-25T08:30:58;7.60;;;5.20;;
57297;SDS011;43147;50.972;18.210;2023-04-25T08:33:24;8.80;;;5.50;;
57297;SDS011;43147;50.972;18.210;2023-04-25T08:35:50;8.10;;;5.30;;
57297;SDS011;43147;50.972;18.210;2023-04-25T08:38:16;7.80;;;4.10;;
57297;SDS011;43147;50.972;18.210;2023-04-25T08:40:42;6.80;;;5.30;;
57297;SDS011;43147;50.972;18.210;2023-04-25T08:43:08;6.50;;;4.60;;
57297;SDS011;43147;50.972;18.210;2023-04-25T08:45:39;4.30;;;3.40;;
57297;SDS011;43147;50.972;18.210;2023-04-25T08:48:12;4.90;;;3.80;;
57297;SDS011;43147;50.972;18.210;2023-04-25T08:50:39;5.40;;;3.60;;
57297;SDS011;43147;50.972;18.210;2023-04-25T08:53:08;5.90;;;4.10;;
57297;SDS011;43147;50.972;18.210;2023-04-25T08:55:36;7.30;;;4.50;;
57297;SDS011;43147;50.972;18.210;2023-04-25T08:58:02;7.80;;;4.60;;
57297;SDS011;43147;50.972;18.210;2023-04-25T09:00:29;11.20;;;7.50;;
57297;SDS011;43147;50.972;18.210;2023-04-25T09:02:55;8.20;;;4.10;;
57297;SDS011;43147;50.972;18.210;2023-04-25T09:05:21;5.10;;;3.00;;
57297;SDS011;43147;50.972;18.210;2023-04-25T09:07:48;4.10;;;3.40;;
57297;SDS011;43147;50.972;18.210;2023-04-25T09:10:13;5.10;;;3.80;;
57297;SDS011;43147;50.972;18.210;2023-04-25T09:12:39;7.80;;;4.20;;
57297;SDS011;43147;50.972;18.210;2023-04-25T09:15:06;7.40;;;3.60;;
57297;SDS011;43147;50.972;18.210;2023-04-25T09:17:33;6.10;;;3.60;;
57297;SDS011;43147;50.972;18.210;2023-04-25T09:20:08;5.40;;;3.30;;
57297;SDS011;43147;50.972;18.210;2023-04-25T09:22:36;8.20;;;3.80;;
57297;SDS011;43147;50.972;18.210;2023-04-25T09:25:08;5.20;;;3.10;;
57297;SDS011;43147;50.972;18.210;2023-04-25T09:27:35;6.10;;;3.30;;
57297;SDS011;43147;50.972;18.210;2023-04-25T09:30:01;3.80;;;2.70;;
57297;SDS011;43147;50.972;18.210;2023-04-25T09:32:28;4.90;;;3.00;;
57297;SDS011;43147;50.972;18.210;2023-04-25T09:34:54;6.70;;;3.30;;
57297;SDS011;43147;50.972;18.210;2023-04-25T09:37:22;6.70;;;3.10;;
57297;SDS011;43147;50.972;18.210;2023-04-25T09:39:49;10.60;;;3.30;;
57297;SDS011;43147;50.972;18.210;2023-04-25T09:42:17;4.30;;;2.90;;
57297;SDS011;43147;50.972;18.210;2023-04-25T09:44:43;6.50;;;3.30;;
57297;SDS011;43147;50.972;18.210;2023-04-25T09:47:10;10.20;;;3.60;;
57297;SDS011;43147;50.972;18.210;2023-04-25T09:49:41;5.40;;;3.10;;
57297;SDS011;43147;50.972;18.210;2023-04-25T09:52:08;4.00;;;3.00;;
57297;SDS011;43147;50.972;18.210;2023-04-25T09:54:34;7.60;;;3.30;;
57297;SDS011;43147;50.972;18.210;2023-04-25T09:57:02;5.00;;;2.70;;
57297;SDS011;43147;50.972;18.210;2023-04-25T09:59:38;6.00;;;2.60;;
57297;SDS011;43147;50.972;18.210;2023-04-25T10:02:10;3.70;;;2.50;;
57297;SDS011;43147;50.972;18.210;2023-04-25T10:04:36;6.00;;;3.10;;
57297;SDS011;43147;50.972;18.210;2023-04-25T10:07:06;6.80;;;3.50;;
57297;SDS011;43147;50.972;18.210;2023-04-25T10:09:32;6.60;;;4.00;;
57297;SDS011;43147;50.972;18.210;2023-04-25T10:11:59;5.90;;;3.80;;
57297;SDS011;43147;50.972;18.210;2023-04-25T10:14:26;7.70;;;4.80;;
57297;SDS011;43147;50.972;18.210;2023-04-25T10:16:52;7.40;;;4.60;;
57297;SDS011;43147;50.972;18.210;2023-04-25T10:19:22;6.70;;;3.90;;
57297;SDS011;43147;50.972;18.210;2023-04-25T10:21:52;6.70;;;4.10;;
57297;SDS011;43147;50.972;18.210;2023-04-25T10:24:21;7.50;;;4.20;;
57297;SDS011;43147;50.972;18.210;2023-04-25T10:26:47;8.20;;;4.80;;
57297;SDS011;43147;50.972;18.210;2023-04-25T10:29:15;5.90;;;4.60;;
57297;SDS011;43147;50.972;18.210;2023-04-25T10:31:47;6.70;;;3.70;;
57297;SDS011;43147;50.972;18.210;2023-04-25T10:34:12;9.90;;;4.10;;
57297;SDS011;43147;50.972;18.210;2023-04-25T10:36:38;8.50;;;4.30;;
57297;SDS011;43147;50.972;18.210;2023-04-25T10:39:05;6.20;;;4.10;;
57297;SDS011;43147;50.972;18.210;2023-04-25T10:41:32;8.50;;;4.40;;
57297;SDS011;43147;50.972;18.210;2023-04-25T10:44:11;6.00;;;4.00;;
57297;SDS011;43147;50.972;18.210;2023-04-25T10:46:36;8.10;;;4.40;;
57297;SDS011;43147;50.972;18.210;2023-04-25T10:49:02;4.60;;;4.10;;
57297;SDS011;43147;50.972;18.210;2023-04-25T10:51:29;7.90;;;4.60;;
57297;SDS011;43147;50.972;18.210;2023-04-25T10:54:06;5.40;;;4.00;;
57297;SDS011;43147;50.972;18.210;2023-04-25T10:56:33;6.40;;;4.50;;
57297;SDS011;43147;50.972;18.210;2023-04-25T11:04:19;5.60;;;4.00;;
57297;SDS011;43147;50.972;18.210;2023-04-25T11:07:16;8.20;;;3.50;;
57297;SDS011;43147;50.972;18.210;2023-04-25T11:09:48;6.80;;;4.10;;
57297;SDS011;43147;50.972;18.210;2023-04-25T11:12:14;6.30;;;4.20;;
57297;SDS011;43147;50.972;18.210;2023-04-25T11:14:41;9.20;;;4.50;;
57297;SDS011;43147;50.972;18.210;2023-04-25T11:17:07;6.50;;;4.00;;
57297;SDS011;43147;50.972;18.210;2023-04-25T11:19:32;5.90;;;4.20;;
57297;SDS011;43147;50.972;18.210;2023-04-25T11:21:59;7.60;;;4.30;;
57297;SDS011;43147;50.972;18.210;2023-04-25T11:24:26;4.60;;;4.20;;
57297;SDS011;43147;50.972;18.210;2023-04-25T11:26:53;6.00;;;4.40;;
57297;SDS011;43147;50.972;18.210;2023-04-25T11:29:21;6.20;;;4.10;;
57297;SDS011;43147;50.972;18.210;2023-04-25T11:31:48;7.40;;;4.40;;
57297;SDS011;43147;50.972;18.210;2023-04-25T11:34:17;7.10;;;4.30;;
57297;SDS011;43147;50.972;18.210;2023-04-25T11:36:44;9.30;;;4.30;;
57297;SDS011;43147;50.972;18.210;2023-04-25T11:39:10;6.40;;;4.50;;
57297;SDS011;43147;50.972;18.210;2023-04-25T11:41:37;6.50;;;4.60;;
57297;SDS011;43147;50.972;18.210;2023-04-25T11:44:03;7.80;;;4.20;;
57297;SDS011;43147;50.972;18.210;2023-04-25T11:46:30;4.10;;;3.40;;
57297;SDS011;43147;50.972;18.210;2023-04-25T11:48:56;5.40;;;4.30;;
57297;SDS011;43147;50.972;18.210;2023-04-25T11:51:22;10.20;;;5.10;;
57297;SDS011;43147;50.972;18.210;2023-04-25T11:53:48;5.20;;;4.70;;
57297;SDS011;43147;50.972;18.210;2023-04-25T11:56:13;5.70;;;3.90;;
57297;SDS011;43147;50.972;18.210;2023-04-25T11:58:55;5.60;;;3.90;;
57297;SDS011;43147;50.972;18.210;2023-04-25T12:01:31;8.30;;;5.50;;
57297;SDS011;43147;50.972;18.210;2023-04-25T12:03:58;9.30;;;5.30;;
57297;SDS011;43147;50.972;18.210;2023-04-25T12:06:39;5.80;;;4.80;;
57297;SDS011;43147;50.972;18.210;2023-04-25T12:09:07;10.40;;;5.10;;
57297;SDS011;43147;50.972;18.210;2023-04-25T12:11:47;7.40;;;5.00;;
57297;SDS011;43147;50.972;18.210;2023-04-25T12:14:21;5.70;;;5.10;;
57297;SDS011;43147;50.972;18.210;2023-04-25T12:16:47;5.60;;;5.00;;
57297;SDS011;43147;50.972;18.210;2023-04-25T12:19:14;6.50;;;4.30;;
57297;SDS011;43147;50.972;18.210;2023-04-25T12:21:40;5.70;;;4.40;;
57297;SDS011;43147;50.972;18.210;2023-04-25T12:26:46;4.70;;;3.90;;
57297;SDS011;43147;50.972;18.210;2023-04-25T12:29:18;4.80;;;3.90;;
57297;SDS011;43147;50.972;18.210;2023-04-25T12:31:49;8.40;;;4.50;;
57297;SDS011;43147;50.972;18.210;2023-04-25T12:34:22;7.50;;;4.40;;
57297;SDS011;43147;50.972;18.210;2023-04-25T12:36:49;5.20;;;3.80;;
57297;SDS011;43147;50.972;18.210;2023-04-25T12:39:16;7.10;;;4.10;;
57297;SDS011;43147;50.972;18.210;2023-04-25T12:41:42;7.10;;;4.40;;
57297;SDS011;43147;50.972;18.210;2023-04-25T12:44:09;12.10;;;5.10;;
57297;SDS011;43147;50.972;18.210;2023-04-25T12:46:35;9.30;;;4.70;;
57297;SDS011;43147;50.972;18.210;2023-04-25T12:49:01;6.20;;;5.60;;
57297;SDS011;43147;50.972;18.210;2023-04-25T12:51:28;4.10;;;3.70;;
57297;SDS011;43147;50.972;18.210;2023-04-25T12:53:54;4.50;;;3.70;;
57297;SDS011;43147;50.972;18.210;2023-04-25T12:56:20;4.00;;;2.90;;
57297;SDS011;43147;50.972;18.210;2023-04-25T12:58:46;4.80;;;2.80;;
57297;SDS011;43147;50.972;18.210;2023-04-25T13:01:13;3.80;;;3.00;;
57297;SDS011;43147;50.972;18.210;2023-04-25T13:03:40;5.00;;;2.70;;
57297;SDS011;43147;50.972;18.210;2023-04-25T13:06:08;4.70;;;3.20;;
57297;SDS011;43147;50.972;18.210;2023-04-25T13:08:34;3.60;;;2.60;;
57297;SDS011;43147;50.972;18.210;2023-04-25T13:11:02;4.40;;;2.40;;
57297;SDS011;43147;50.972;18.210;2023-04-25T13:13:29;4.10;;;2.20;;
57297;SDS011;43147;50.972;18.210;2023-04-25T13:15:57;2.30;;;1.90;;
57297;SDS011;43147;50.972;18.210;2023-04-25T13:18:23;6.90;;;2.10;;
57297;SDS011;43147;50.972;18.210;2023-04-25T13:20:52;3.20;;;2.00;;
57297;SDS011;43147;50.972;18.210;2023-04-25T13:23:18;4.00;;;1.80;;
57297;SDS011;43147;50.972;18.210;2023-04-25T13:25:46;3.20;;;2.20;;
57297;SDS011;43147;50.972;18.210;2023-04-25T13:28:12;2.30;;;2.10;;
57297;SDS011;43147;50.972;18.210;2023-04-25T13:30:38;2.90;;;2.40;;
57297;SDS011;43147;50.972;18.210;2023-04-25T13:33:05;5.40;;;2.90;;
57297;SDS011;43147;50.972;18.210;2023-04-25T13:35:32;3.00;;;1.90;;
57297;SDS011;43147;50.972;18.210;2023-04-25T13:37:59;4.60;;;1.70;;
57297;SDS011;43147;50.972;18.210;2023-04-25T13:40:25;1.60;;;1.50;;
57297;SDS011;43147;50.972;18.210;2023-04-25T13:42:52;2.60;;;1.90;;
57297;SDS011;43147;50.972;18.210;2023-04-25T13:45:18;4.00;;;2.20;;
57297;SDS011;43147;50.972;18.210;2023-04-25T13:47:44;10.10;;;1.80;;
57297;SDS011;43147;50.972;18.210;2023-04-25T13:50:10;2.50;;;1.90;;
57297;SDS011;43147;50.972;18.210;2023-04-25T13:52:35;3.00;;;1.60;;
57297;SDS011;43147;50.972;18.210;2023-04-25T13:55:01;3.40;;;1.60;;
57297;SDS011;43147;50.972;18.210;2023-04-25T13:57:30;3.00;;;1.70;;
57297;SDS011;43147;50.972;18.210;2023-04-25T13:59:55;3.10;;;1.70;;
57297;SDS011;43147;50.972;18.210;2023-04-25T14:02:22;5.40;;;2.00;;
57297;SDS011;43147;50.972;18.210;2023-04-25T14:04:47;5.70;;;1.70;;
57297;SDS011;43147;50.972;18.210;2023-04-25T14:07:13;2.60;;;1.80;;
57297;SDS011;43147;50.972;18.210;2023-04-25T14:09:43;2.10;;;1.30;;
57297;SDS011;43147;50.972;18.210;2023-04-25T14:12:09;2.80;;;1.80;;
57297;SDS011;43147;50.972;18.210;2023-04-25T14:14:35;5.30;;;3.30;;
57297;SDS011;43147;50.972;18.210;2023-04-25T14:17:00;5.60;;;2.90;;
57297;SDS011;43147;50.972;18.210;2023-04-25T14:19:26;5.60;;;2.50;;
57297;SDS011;43147;50.972;18.210;2023-04-25T14:21:52;4.20;;;2.40;;
57297;SDS011;43147;50.972;18.210;2023-04-25T14:24:18;2.10;;;1.80;;
57297;SDS011;43147;50.972;18.210;2023-04-25T14:26:43;3.70;;;2.40;;
57297;SDS011;43147;50.972;18.210;2023-04-25T14:29:09;4.50;;;2.30;;
57297;SDS011;43147;50.972;18.210;2023-04-25T14:31:37;10.10;;;3.00;;
57297;SDS011;43147;50.972;18.210;2023-04-25T14:34:04;7.30;;;2.20;;
57297;SDS011;43147;50.972;18.210;2023-04-25T14:36:29;7.60;;;2.00;;